createdAt,value
2023-05-16T00:01:12.794Z,16.75
2023-05-16T00:03:39.677Z,16.74
2023-05-16T00:06:06.640Z,16.70
2023-05-16T00:08:33.429Z,16.69
2023-05-16T00:11:00.205Z,16.70
2023-05-16T00:13:27.101Z,16.74
2023-05-16T00:15:54.965Z,16.73
2023-05-16T00:18:23.742Z,16.67
2023-05-16T00:20:51.955Z,16.58
2023-05-16T00:23:18.667Z,16.49
2023-05-16T00:25:47.017Z,16.41
2023-05-16T00:28:14.437Z,16.36
2023-05-16T00:30:41.446Z,16.31
2023-05-16T00:33:08.361Z,16.28
2023-05-16T00:35:35.127Z,16.28
2023-05-16T00:38:01.925Z,16.28
2023-05-16T00:40:28.857Z,16.30
2023-05-16T00:42:55.859Z,16.33
2023-05-16T00:45:22.664Z,16.33
2023-05-16T00:47:50.502Z,16.34
2023-05-16T00:50:18.437Z,16.35
2023-05-16T00:52:45.200Z,16.36
2023-05-16T00:55:12.113Z,16.35
2023-05-16T00:57:41.190Z,16.34
2023-05-16T01:00:10.746Z,16.28
2023-05-16T01:02:38.223Z,16.24
2023-05-16T01:05:05.491Z,16.12
2023-05-16T01:07:32.245Z,16.05
2023-05-16T01:09:59.999Z,15.97
2023-05-16T01:12:49.674Z,15.94
2023-05-16T01:15:28.739Z,15.92
2023-05-16T01:18:26.806Z,15.95
2023-05-16T01:20:56.939Z,15.99
2023-05-16T01:23:41.059Z,16.01
2023-05-16T01:26:10.871Z,16.01
2023-05-16T01:28:38.638Z,16.05
2023-05-16T01:31:06.107Z,16.06
2023-05-16T01:33:32.828Z,16.08
2023-05-16T01:36:40.432Z,16.07
2023-05-16T01:39:41.920Z,16.00
2023-05-16T01:42:14.741Z,16.00
2023-05-16T01:45:00.151Z,16.02
2023-05-16T01:47:28.103Z,16.03
2023-05-16T01:50:08.793Z,15.99
2023-05-16T01:52:42.711Z,15.95
2023-05-16T01:55:15.104Z,15.91
2023-05-16T01:57:43.407Z,15.86
2023-05-16T02:00:11.229Z,15.76
2023-05-16T02:02:40.932Z,15.65
2023-05-16T02:05:09.147Z,15.58
2023-05-16T02:07:36.532Z,15.52
2023-05-16T02:10:04.863Z,15.49
2023-05-16T02:12:35.143Z,15.46
2023-05-16T02:15:01.924Z,15.42
2023-05-16T02:17:28.618Z,15.37
2023-05-16T02:19:55.386Z,15.32
2023-05-16T02:22:22.275Z,15.31
2023-05-16T02:24:48.914Z,15.28
2023-05-16T02:27:15.698Z,15.25
2023-05-16T02:29:42.336Z,15.21
2023-05-16T02:32:09.108Z,15.19
2023-05-16T02:34:35.791Z,15.15
2023-05-16T02:37:02.488Z,15.10
2023-05-16T02:39:30.076Z,15.08
2023-05-16T02:41:56.787Z,15.07
2023-05-16T02:44:23.619Z,15.03
2023-05-16T02:46:50.299Z,15.04
2023-05-16T02:49:17.124Z,14.98
2023-05-16T02:51:45.253Z,14.96
2023-05-16T02:54:11.897Z,14.96
2023-05-16T02:56:38.756Z,14.97
2023-05-16T02:59:08.985Z,14.93
2023-05-16T03:01:35.742Z,14.85
2023-05-16T03:04:02.816Z,14.78
2023-05-16T03:06:30.528Z,14.76
2023-05-16T03:08:59.490Z,14.72
2023-05-16T03:11:28.984Z,14.66
2023-05-16T03:13:55.676Z,14.61
2023-05-16T03:16:24.192Z,14.58
2023-05-16T03:18:51.789Z,14.52
2023-05-16T03:21:18.496Z,14.47
2023-05-16T03:23:45.213Z,14.41
2023-05-16T03:26:11.919Z,14.36
2023-05-16T03:28:38.611Z,14.34
2023-05-16T03:31:05.485Z,14.31
2023-05-16T03:33:32.446Z,14.23
2023-05-16T03:35:59.218Z,14.15
2023-05-16T03:38:26.077Z,14.13
2023-05-16T03:40:53.148Z,14.12
2023-05-16T03:43:19.893Z,14.10
2023-05-16T03:45:46.659Z,14.07
2023-05-16T03:48:13.591Z,14.10
2023-05-16T03:50:41.175Z,14.18
2023-05-16T03:53:08.997Z,14.28
2023-05-16T03:55:35.986Z,14.35
2023-05-16T03:58:02.924Z,14.41
2023-05-16T04:00:29.935Z,14.39
2023-05-16T04:02:57.026Z,14.33
2023-05-16T04:05:24.063Z,14.36
2023-05-16T04:07:51.296Z,14.38
2023-05-16T04:10:18.458Z,14.37
2023-05-16T04:12:45.625Z,14.33
2023-05-16T04:15:13.361Z,14.31
2023-05-16T04:17:40.699Z,14.34
2023-05-16T04:20:07.729Z,14.37
2023-05-16T04:22:34.388Z,14.37
2023-05-16T04:25:01.327Z,14.36
2023-05-16T04:27:29.045Z,14.38
2023-05-16T04:29:56.224Z,14.38
2023-05-16T04:32:23.979Z,14.35
2023-05-16T04:34:54.267Z,14.34
2023-05-16T04:37:20.984Z,14.35
2023-05-16T04:39:47.780Z,14.35
2023-05-16T04:42:14.541Z,14.38
2023-05-16T04:44:42.245Z,14.39
2023-05-16T04:47:09.449Z,14.38
2023-05-16T04:49:36.374Z,14.37
2023-05-16T04:52:03.133Z,14.34
2023-05-16T04:54:29.873Z,14.36
2023-05-16T04:56:57.348Z,14.39
2023-05-16T04:59:24.046Z,14.48
2023-05-16T05:01:50.990Z,14.58
2023-05-16T05:04:17.747Z,14.71
2023-05-16T05:06:44.492Z,14.88
2023-05-16T05:09:11.289Z,14.99
2023-05-16T05:11:38.064Z,15.09
2023-05-16T05:14:04.792Z,15.19
2023-05-16T05:16:31.769Z,15.08
2023-05-16T05:18:59.798Z,14.95
2023-05-16T05:21:26.609Z,14.91
2023-05-16T05:23:53.298Z,14.96
2023-05-16T05:26:21.308Z,15.07
2023-05-16T05:29:01.111Z,15.23
2023-05-16T05:31:31.302Z,15.38
2023-05-16T05:33:57.975Z,15.45
2023-05-16T05:36:24.806Z,15.53
2023-05-16T05:38:51.560Z,15.62
2023-05-16T05:41:18.225Z,15.69
2023-05-16T05:43:44.893Z,15.71
2023-05-16T05:46:11.747Z,15.78
2023-05-16T05:48:38.741Z,15.81
2023-05-16T05:51:05.918Z,15.83
2023-05-16T05:53:32.595Z,15.86
2023-05-16T05:55:59.357Z,15.95
2023-05-16T05:58:26.212Z,15.94
2023-05-16T06:00:52.939Z,15.93
2023-05-16T06:03:21.325Z,15.96
2023-05-16T06:05:48.348Z,15.96
2023-05-16T06:08:15.202Z,16.02
2023-05-16T06:10:41.849Z,16.06
2023-05-16T06:13:08.476Z,16.12
2023-05-16T06:15:35.259Z,16.16
2023-05-16T06:18:02.209Z,16.24
2023-05-16T06:20:29.151Z,16.31
2023-05-16T06:22:56.498Z,16.42
2023-05-16T06:25:23.231Z,16.50
2023-05-16T06:27:50.162Z,16.62
2023-05-16T06:30:16.903Z,16.88
2023-05-16T06:32:43.866Z,17.07
2023-05-16T06:35:10.857Z,17.32
2023-05-16T06:37:37.583Z,17.43
2023-05-16T06:40:04.845Z,17.58
2023-05-16T06:42:31.555Z,17.58
2023-05-16T06:44:58.526Z,17.51
2023-05-16T06:47:25.605Z,17.55
2023-05-16T06:49:52.690Z,17.53
2023-05-16T06:52:19.496Z,17.44
2023-05-16T06:54:46.262Z,17.46
2023-05-16T06:57:13.553Z,17.47
2023-05-16T06:59:40.396Z,17.52
2023-05-16T07:02:07.154Z,17.70
2023-05-16T07:04:36.616Z,17.97
2023-05-16T07:07:04.176Z,18.14
2023-05-16T07:09:31.402Z,18.20
2023-05-16T07:11:58.272Z,18.26
2023-05-16T07:14:25.271Z,18.15
2023-05-16T07:16:52.051Z,17.97
2023-05-16T07:19:18.941Z,17.88
2023-05-16T07:21:45.775Z,17.87
2023-05-16T07:24:12.711Z,17.88
2023-05-16T07:26:39.458Z,17.82
2023-05-16T07:29:06.140Z,17.63
2023-05-16T07:31:32.995Z,17.46
2023-05-16T07:33:59.852Z,17.29
2023-05-16T07:36:26.689Z,17.24
2023-05-16T07:38:53.424Z,17.17
2023-05-16T07:41:20.154Z,17.14
2023-05-16T07:43:47.068Z,17.01
2023-05-16T07:46:14.570Z,16.79
2023-05-16T07:48:41.510Z,16.60
2023-05-16T07:51:08.444Z,16.54
2023-05-16T07:53:35.164Z,16.54
2023-05-16T07:56:02.571Z,16.46
2023-05-16T07:58:29.518Z,16.36
2023-05-16T08:00:56.515Z,16.25
2023-05-16T08:03:23.517Z,16.23
2023-05-16T08:05:51.847Z,16.27
2023-05-16T08:08:19.277Z,16.35
2023-05-16T08:10:46.108Z,16.38
2023-05-16T08:13:13.253Z,16.39
2023-05-16T08:15:40.152Z,16.46
2023-05-16T08:18:14.474Z,16.51
2023-05-16T08:20:42.275Z,16.56
2023-05-16T08:23:09.511Z,16.67
2023-05-16T08:25:36.370Z,16.67
2023-05-16T08:28:03.202Z,16.59
2023-05-16T08:30:31.293Z,16.52
2023-05-16T08:32:58.356Z,16.55
2023-05-16T08:35:25.988Z,16.65
2023-05-16T08:37:53.902Z,16.76
2023-05-16T08:40:22.379Z,16.95
2023-05-16T08:42:49.458Z,17.09
2023-05-16T08:45:16.655Z,17.16
2023-05-16T08:47:45.469Z,17.35
2023-05-16T08:50:14.614Z,17.54
2023-05-16T08:52:42.396Z,17.65
2023-05-16T08:55:11.607Z,17.73
2023-05-16T08:57:39.263Z,17.85
2023-05-16T09:00:12.307Z,18.00
2023-05-16T09:02:44.733Z,18.12
2023-05-16T09:05:13.498Z,18.28
2023-05-16T09:07:41.681Z,18.36
2023-05-16T09:10:08.903Z,18.36
2023-05-16T09:12:36.150Z,18.31
2023-05-16T09:15:08.358Z,18.30
2023-05-16T09:17:43.983Z,18.33
2023-05-16T09:20:11.638Z,18.69
2023-05-16T09:22:39.250Z,18.82
2023-05-16T09:25:12.623Z,18.68
2023-05-16T09:27:42.309Z,18.44
2023-05-16T09:30:10.053Z,18.14
2023-05-16T09:32:37.311Z,17.78
2023-05-16T09:35:04.770Z,17.34
2023-05-16T09:37:31.558Z,17.01
2023-05-16T09:39:58.505Z,16.82
2023-05-16T09:42:25.840Z,16.61
2023-05-16T09:44:56.289Z,16.47
2023-05-16T09:47:23.100Z,16.59
2023-05-16T09:49:54.124Z,16.68
2023-05-16T09:52:21.053Z,16.93
2023-05-16T09:54:51.189Z,17.13
2023-05-16T09:57:22.048Z,17.32
2023-05-16T09:59:48.863Z,17.38
2023-05-16T10:02:16.410Z,17.33
2023-05-16T10:04:43.339Z,17.31
2023-05-16T10:07:10.619Z,17.36
2023-05-16T10:09:40.764Z,17.36
2023-05-16T10:12:11.719Z,17.28
2023-05-16T10:14:42.467Z,17.13
2023-05-16T10:17:14.538Z,16.96
2023-05-16T10:19:42.372Z,16.94
2023-05-16T10:22:12.327Z,16.91
2023-05-16T10:24:57.210Z,16.94
2023-05-16T10:27:25.950Z,17.01
2023-05-16T10:29:54.980Z,17.01
2023-05-16T10:32:25.537Z,17.03
2023-05-16T10:34:53.437Z,17.06
2023-05-16T10:37:20.504Z,17.06
2023-05-16T10:39:48.156Z,16.95
2023-05-16T10:42:18.363Z,16.96
2023-05-16T10:44:54.660Z,16.94
2023-05-16T10:47:22.663Z,16.95
2023-05-16T10:49:49.617Z,16.95
2023-05-16T10:52:19.456Z,16.93
2023-05-16T10:54:52.476Z,16.98
2023-05-16T10:57:23.472Z,17.06
2023-05-16T10:59:52.189Z,17.03
2023-05-16T11:02:24.612Z,17.05
2023-05-16T11:04:53.612Z,17.08
2023-05-16T11:07:22.850Z,17.08
2023-05-16T11:10:10.596Z,17.03
2023-05-16T11:12:45.383Z,16.86
2023-05-16T11:15:24.844Z,16.64
2023-05-16T11:18:04.515Z,16.56
2023-05-16T11:20:32.576Z,16.51
2023-05-16T11:23:21.389Z,16.37
2023-05-16T11:25:51.658Z,16.30
2023-05-16T11:28:22.834Z,16.28
2023-05-16T11:30:52.112Z,16.22
2023-05-16T11:33:19.332Z,16.24
2023-05-16T11:36:14.567Z,16.15
2023-05-16T11:38:43.909Z,15.97
2023-05-16T11:41:11.753Z,15.88
2023-05-16T11:43:43.889Z,15.77
2023-05-16T11:46:16.333Z,15.69
2023-05-16T11:48:45.430Z,15.59
2023-05-16T11:51:12.375Z,15.48
2023-05-16T11:53:39.738Z,15.49
2023-05-16T11:56:08.757Z,15.55
2023-05-16T11:58:36.901Z,15.64
2023-05-16T12:01:05.001Z,15.72
2023-05-16T12:03:35.837Z,15.80
2023-05-16T12:06:03.260Z,15.75
2023-05-16T12:08:30.839Z,15.74
2023-05-16T12:10:58.764Z,15.74
2023-05-16T12:13:26.079Z,15.71
2023-05-16T12:15:55.194Z,15.73
2023-05-16T12:18:24.478Z,15.81
2023-05-16T12:20:52.637Z,16.05
2023-05-16T12:23:21.091Z,16.30
2023-05-16T12:25:49.416Z,16.61
2023-05-16T12:28:16.860Z,17.13
2023-05-16T12:30:44.937Z,17.72
2023-05-16T12:33:14.358Z,18.27
2023-05-16T12:35:45.479Z,18.85
2023-05-16T12:38:14.405Z,19.27
2023-05-16T12:40:43.357Z,19.56
2023-05-16T12:43:15.654Z,19.98
2023-05-16T12:45:43.394Z,20.33
2023-05-16T12:48:14.580Z,20.68
2023-05-16T12:50:42.010Z,20.87
2023-05-16T12:53:14.057Z,20.84
2023-05-16T12:55:42.760Z,20.64
2023-05-16T12:58:15.346Z,20.53
2023-05-16T13:00:43.127Z,20.51
2023-05-16T13:03:10.235Z,20.48
2023-05-16T13:05:37.741Z,20.26
2023-05-16T13:08:05.050Z,20.17
2023-05-16T13:10:32.272Z,20.08
2023-05-16T13:13:00.204Z,20.02
2023-05-16T13:15:28.910Z,20.13
2023-05-16T13:17:56.187Z,20.30
2023-05-16T13:20:22.935Z,20.54
2023-05-16T13:22:49.725Z,20.77
2023-05-16T13:25:17.901Z,20.98
2023-05-16T13:27:44.746Z,21.13
2023-05-16T13:30:11.841Z,21.17
2023-05-16T13:32:38.716Z,21.24
2023-05-16T13:35:06.257Z,21.28
2023-05-16T13:37:33.621Z,21.26
2023-05-16T13:40:00.854Z,21.02
2023-05-16T13:42:27.719Z,20.70
2023-05-16T13:44:54.416Z,20.79
2023-05-16T13:47:22.126Z,20.92
2023-05-16T13:49:49.178Z,21.08
2023-05-16T13:52:16.935Z,21.02
2023-05-16T13:54:43.676Z,21.20
2023-05-16T13:57:10.650Z,21.46
2023-05-16T14:00:05.652Z,21.67
2023-05-16T14:02:26.556Z,21.62
2023-05-16T14:04:53.926Z,21.44
2023-05-16T14:07:20.943Z,21.26
2023-05-16T14:09:47.789Z,20.97
2023-05-16T14:12:15.195Z,20.65
2023-05-16T14:14:41.971Z,20.40
2023-05-16T14:17:08.839Z,20.38
2023-05-16T14:19:36.478Z,20.48
2023-05-16T14:22:03.844Z,20.75
2023-05-16T14:24:30.754Z,20.74
2023-05-16T14:26:58.521Z,20.60
2023-05-16T14:29:25.893Z,20.77
2023-05-16T14:31:53.435Z,21.02
2023-05-16T14:34:23.059Z,21.24
2023-05-16T14:36:50.914Z,21.00
2023-05-16T14:39:20.351Z,20.60
2023-05-16T14:41:47.153Z,19.98
2023-05-16T14:44:14.027Z,19.61
2023-05-16T14:46:41.306Z,19.52
2023-05-16T14:49:09.461Z,19.58
2023-05-16T14:51:36.542Z,19.40
2023-05-16T14:54:04.281Z,19.49
2023-05-16T14:56:34.361Z,19.63
2023-05-16T14:59:01.696Z,19.78
2023-05-16T15:01:28.806Z,19.88
2023-05-16T15:03:56.727Z,20.02
2023-05-16T15:06:25.055Z,20.12
2023-05-16T15:08:52.260Z,19.90
2023-05-16T15:11:22.272Z,19.55
2023-05-16T15:13:49.331Z,19.26
2023-05-16T15:16:16.800Z,19.26
2023-05-16T15:18:44.238Z,19.43
2023-05-16T15:21:11.354Z,19.61
2023-05-16T15:23:38.448Z,19.73
2023-05-16T15:26:05.489Z,20.02
2023-05-16T15:28:32.378Z,20.24
2023-05-16T15:30:59.439Z,20.34
2023-05-16T15:33:29.262Z,20.54
2023-05-16T15:35:56.311Z,20.84
2023-05-16T15:38:23.278Z,21.10
2023-05-16T15:40:57.920Z,21.03
2023-05-16T15:43:33.089Z,20.77
2023-05-16T15:46:02.772Z,20.66
2023-05-16T15:48:29.558Z,20.55
2023-05-16T15:51:04.664Z,20.46
2023-05-16T15:53:31.589Z,20.35
2023-05-16T15:55:58.425Z,20.36
2023-05-16T15:58:26.016Z,20.28
2023-05-16T16:00:55.071Z,20.14
2023-05-16T16:03:22.063Z,20.13
2023-05-16T16:05:49.765Z,20.20
2023-05-16T16:08:20.687Z,20.32
2023-05-16T16:10:47.631Z,20.28
2023-05-16T16:13:15.138Z,20.25
2023-05-16T16:15:42.331Z,20.12
2023-05-16T16:18:09.581Z,19.66
2023-05-16T16:20:36.629Z,19.26
2023-05-16T16:23:03.550Z,19.00
2023-05-16T16:25:30.912Z,18.96
2023-05-16T16:28:00.150Z,18.95
2023-05-16T16:30:27.969Z,18.84
2023-05-16T16:32:55.077Z,18.84
2023-05-16T16:35:27.206Z,18.75
2023-05-16T16:38:05.758Z,18.54
2023-05-16T16:40:35.580Z,18.26
2023-05-16T16:43:02.685Z,18.02
2023-05-16T16:45:29.954Z,17.91
2023-05-16T16:47:58.019Z,17.83
2023-05-16T16:50:25.610Z,17.89
2023-05-16T16:53:02.229Z,17.89
2023-05-16T16:55:29.681Z,17.84
2023-05-16T16:57:57.050Z,17.79
2023-05-16T17:00:24.255Z,17.64
2023-05-16T17:02:51.892Z,17.59
2023-05-16T17:05:19.758Z,17.65
2023-05-16T17:07:46.442Z,17.71
2023-05-16T17:10:13.470Z,17.88
2023-05-16T17:12:46.883Z,18.14
2023-05-16T17:15:16.442Z,18.30
2023-05-16T17:17:44.137Z,18.40
2023-05-16T17:20:12.712Z,18.49
2023-05-16T17:22:40.068Z,18.60
2023-05-16T17:25:08.017Z,18.63
2023-05-16T17:27:34.754Z,18.59
2023-05-16T17:30:01.613Z,18.44
2023-05-16T17:32:28.515Z,18.22
2023-05-16T17:34:55.432Z,18.01
2023-05-16T17:37:22.430Z,17.82
2023-05-16T17:39:50.487Z,17.62
2023-05-16T17:42:17.278Z,17.53
2023-05-16T17:44:44.073Z,17.44
2023-05-16T17:47:11.468Z,17.37
2023-05-16T17:49:38.442Z,17.29
2023-05-16T17:52:05.832Z,17.27
2023-05-16T17:54:32.839Z,17.21
2023-05-16T17:57:00.573Z,17.12
2023-05-16T17:59:27.471Z,17.04
2023-05-16T18:01:57.458Z,16.99
2023-05-16T18:04:24.604Z,16.96
2023-05-16T18:06:54.690Z,16.94
2023-05-16T18:09:21.921Z,16.92
2023-05-16T18:11:49.175Z,16.86
2023-05-16T18:14:17.183Z,16.81
2023-05-16T18:16:44.047Z,16.79
2023-05-16T18:19:11.100Z,16.75
2023-05-16T18:21:39.384Z,16.70
2023-05-16T18:24:08.444Z,16.61
2023-05-16T18:26:36.744Z,16.55
2023-05-16T18:29:03.852Z,16.53
2023-05-16T18:31:33.657Z,16.48
2023-05-16T18:34:03.871Z,16.40
2023-05-16T18:36:31.067Z,16.36
2023-05-16T18:38:57.830Z,16.35
2023-05-16T18:41:24.621Z,16.39
2023-05-16T18:43:51.440Z,16.49
2023-05-16T18:46:18.215Z,16.58
2023-05-16T18:48:45.067Z,16.64
2023-05-16T18:51:12.659Z,16.69
2023-05-16T18:53:40.567Z,16.77
2023-05-16T18:56:07.418Z,16.81
2023-05-16T18:58:34.378Z,16.80
2023-05-16T19:01:01.822Z,16.76
2023-05-16T19:03:28.814Z,16.73
2023-05-16T19:05:55.997Z,16.71
2023-05-16T19:08:25.585Z,16.71
2023-05-16T19:10:54.311Z,16.67
2023-05-16T19:13:22.484Z,16.62
2023-05-16T19:15:49.874Z,16.59
2023-05-16T19:18:18.085Z,16.55
2023-05-16T19:20:45.718Z,16.52
2023-05-16T19:23:12.656Z,16.49
2023-05-16T19:25:45.646Z,16.51
2023-05-16T19:28:13.002Z,16.52
2023-05-16T19:30:40.672Z,16.50
2023-05-16T19:33:07.667Z,16.49
2023-05-16T19:35:34.781Z,16.45
2023-05-16T19:38:01.913Z,16.40
2023-05-16T19:40:29.921Z,16.37
2023-05-16T19:42:57.428Z,16.32
2023-05-16T19:45:24.259Z,16.30
2023-05-16T19:47:51.374Z,16.24
2023-05-16T19:50:19.268Z,16.21
2023-05-16T19:52:46.349Z,16.18
2023-05-16T19:55:13.346Z,16.14
2023-05-16T19:57:41.460Z,16.08
2023-05-16T20:00:17.988Z,15.97
2023-05-16T20:02:44.951Z,15.76
2023-05-16T20:05:12.058Z,15.57
2023-05-16T20:07:40.763Z,15.38
2023-05-16T20:10:08.952Z,15.21
2023-05-16T20:12:36.240Z,15.11
2023-05-16T20:15:09.515Z,15.10
2023-05-16T20:17:37.184Z,15.12
2023-05-16T20:20:05.605Z,15.22
2023-05-16T20:22:32.518Z,15.21
2023-05-16T20:25:04.309Z,15.13
2023-05-16T20:27:32.002Z,15.00
2023-05-16T20:29:59.339Z,14.88
2023-05-16T20:32:28.361Z,14.77
2023-05-16T20:34:56.974Z,14.69
2023-05-16T20:37:26.838Z,14.65
2023-05-16T20:39:54.555Z,14.61
2023-05-16T20:42:22.225Z,14.54
2023-05-16T20:44:49.105Z,14.48
2023-05-16T20:47:17.123Z,14.45
2023-05-16T20:49:44.315Z,14.40
2023-05-16T20:52:11.152Z,14.35
2023-05-16T20:54:38.098Z,14.31
2023-05-16T20:57:05.367Z,14.28
2023-05-16T20:59:32.485Z,14.24
2023-05-16T21:01:59.554Z,14.18
2023-05-16T21:04:26.512Z,14.18
2023-05-16T21:06:53.486Z,14.14
2023-05-16T21:09:20.487Z,14.12
2023-05-16T21:11:47.188Z,14.09
2023-05-16T21:14:14.504Z,14.04
2023-05-16T21:16:41.765Z,13.98
2023-05-16T21:19:08.788Z,13.94
2023-05-16T21:21:35.663Z,13.88
2023-05-16T21:24:02.455Z,13.84
2023-05-16T21:26:29.225Z,13.79
2023-05-16T21:28:56.236Z,13.76
2023-05-16T21:31:23.906Z,13.71
2023-05-16T21:33:52.519Z,13.64
2023-05-16T21:36:20.345Z,13.59
2023-05-16T21:38:47.499Z,13.52
2023-05-16T21:41:14.719Z,13.46
2023-05-16T21:43:41.515Z,13.41
2023-05-16T21:46:08.307Z,13.36
2023-05-16T21:48:35.113Z,13.32
2023-05-16T21:51:02.144Z,13.29
2023-05-16T21:53:28.947Z,13.26
2023-05-16T21:55:55.824Z,13.19
2023-05-16T21:58:23.438Z,13.15
2023-05-16T22:00:50.310Z,13.11
2023-05-16T22:03:19.154Z,13.09
2023-05-16T22:05:46.856Z,13.08
2023-05-16T22:08:13.919Z,13.03
2023-05-16T22:10:40.754Z,12.99
2023-05-16T22:13:08.149Z,12.97
2023-05-16T22:15:35.174Z,12.91
2023-05-16T22:18:02.253Z,12.86
2023-05-16T22:20:29.837Z,12.81
2023-05-16T22:22:56.825Z,12.80
2023-05-16T22:25:24.153Z,12.76
2023-05-16T22:27:50.946Z,12.72
2023-05-16T22:30:18.472Z,12.68
2023-05-16T22:32:46.941Z,12.65
2023-05-16T22:35:15.080Z,12.60
2023-05-16T22:37:41.953Z,12.56
2023-05-16T22:40:09.275Z,12.56
2023-05-16T22:42:36.038Z,12.56
2023-05-16T22:45:04.072Z,12.54
2023-05-16T22:47:31.142Z,12.51
2023-05-16T22:49:58.016Z,12.51
2023-05-16T22:52:24.853Z,12.53
2023-05-16T22:54:51.755Z,12.52
2023-05-16T22:57:18.464Z,12.52
2023-05-16T22:59:45.205Z,12.50
2023-05-16T23:02:11.899Z,12.48
2023-05-16T23:04:38.936Z,12.43
2023-05-16T23:07:05.813Z,12.38
2023-05-16T23:09:32.631Z,12.36
2023-05-16T23:11:59.405Z,12.35
2023-05-16T23:14:26.530Z,12.33
2023-05-16T23:16:53.438Z,12.31
2023-05-16T23:19:20.367Z,12.31
2023-05-16T23:21:47.191Z,12.30
2023-05-16T23:24:15.566Z,12.26
2023-05-16T23:26:43.697Z,12.21
2023-05-16T23:29:10.572Z,12.17
2023-05-16T23:31:37.312Z,12.15
2023-05-16T23:34:04.182Z,12.10
2023-05-16T23:36:31.201Z,12.06
2023-05-16T23:38:58.075Z,12.07
2023-05-16T23:41:24.870Z,12.03
2023-05-16T23:43:51.562Z,12.00
2023-05-16T23:46:18.225Z,11.98
2023-05-16T23:48:45.116Z,11.94
2023-05-16T23:51:11.890Z,11.93
2023-05-16T23:53:38.630Z,11.90
2023-05-16T23:56:05.596Z,11.87
2023-05-16T23:58:32.444Z,11.86
